Time;durP1;ratioP1;P1;durP2;ratioP2;P2;SDS_P1;SDS_P2;PMS_P1;PMS_P2;Temp;Humidity;BMP_temperature;BMP_pressure;BME280_temperature;BME280_humidity;BME280_pressure;Samples;Min_cycle;Max_cycle;Signal;HPM_P1;HPM_P2
2021/12/17 00:04:02;;;;;;;6.32;2.85;;;;;;;4.98;94.50;100430.00;10416329;28;20597;-71
2021/12/17 00:09:03;;;;;;;6.50;3.33;;;;;;;4.97;95.21;100404.63;10415887;28;20509;-70
2021/12/17 00:14:04;;;;;;;5.22;2.70;;;;;;;4.85;94.64;100375.91;10415579;28;20037;-71
2021/12/17 00:51:48;;;;;;;8.60;3.40;;;;;;;4.81;95.55;100317.41;10407175;28;20472;-71
2021/12/17 00:56:38;;;;;;;5.55;3.10;;;;;;;4.64;95.51;100260.97;10413304;28;20136;-70
2021/12/17 01:01:39;;;;;;;6.97;3.10;;;;;;;4.23;95.12;100190.88;10413337;28;20071;-70
2021/12/17 01:06:39;;;;;;;10.20;3.30;;;;;;;4.20;95.48;100170.09;10413396;28;20047;-70
2021/12/17 01:11:40;;;;;;;9.00;3.90;;;;;;;4.57;95.58;100239.59;10412439;28;20586;-70
2021/12/17 01:16:41;;;;;;;8.50;3.53;;;;;;;4.76;95.93;100259.91;10412384;28;20037;-70
2021/12/17 01:21:59;;;;;;;7.25;3.83;;;;;;;4.93;95.63;100283.94;10413123;28;20421;-70
2021/12/17 01:42:49;;;;;;;5.65;3.20;;;;;;;4.95;95.74;100253.88;10412789;28;20041;-70
2021/12/17 01:47:50;;;;;;;9.00;3.50;;;;;;;4.91;95.57;100257.75;10412830;28;20095;-71
2021/12/17 02:03:30;;;;;;;7.78;4.22;;;;;;;4.62;95.95;100214.72;10420933;28;20103;-70
2021/12/17 02:08:31;;;;;;;7.43;3.80;;;;;;;4.89;95.71;100245.69;10420350;28;20386;-70
2021/12/17 02:35:27;;;;;;;11.45;3.90;;;;;;;3.61;95.71;100051.53;10375131;28;20053;-70
2021/12/17 02:45:48;;;;;;;6.97;3.28;;;;;;;4.86;95.73;100228.34;10418907;28;20037;-71
2021/12/17 02:50:55;;;;;;;10.00;4.32;;;;;;;4.85;96.19;100224.06;10419536;28;20123;-71
2021/12/17 02:56:06;;;;;;;10.40;3.50;;;;;;;4.85;96.41;100205.66;10418100;28;20056;-71
2021/12/17 03:01:10;;;;;;;10.52;3.95;;;;;;;4.58;95.97;100182.56;10434862;28;20059;-71
2021/12/17 03:06:11;;;;;;;8.02;3.35;;;;;;;4.66;96.77;100197.69;10458847;28;20045;-70
2021/12/17 03:11:12;;;;;;;8.80;3.75;;;;;;;3.46;95.65;99989.81;10452881;28;20119;-70
2021/12/17 03:16:27;;;;;;;8.23;3.58;;;;;;;4.48;96.02;100150.13;10441372;28;20041;-70
2021/12/17 03:26:50;;;;;;;7.00;3.83;;;;;;;4.39;95.84;100129.88;10458782;28;20068;-71
2021/12/17 03:31:52;;;;;;;8.52;3.75;;;;;;;4.30;95.88;100113.09;10459127;28;20037;-70
2021/12/17 03:36:56;;;;;;;8.85;3.72;;;;;;;4.76;96.46;100185.41;10450702;28;20504;-70
2021/12/17 03:41:58;;;;;;;10.82;3.90;;;;;;;3.88;96.03;100029.94;10429079;28;20501;-71
2021/12/17 03:47:00;;;;;;;9.85;3.47;;;;;;;4.65;95.96;100143.41;10413590;28;20124;-73
2021/12/17 03:52:06;;;;;;;8.27;3.28;;;;;;;3.12;96.08;99879.81;10415574;28;20136;-71
2021/12/17 03:57:10;;;;;;;9.73;3.60;;;;;;;4.01;95.89;100034.13;10416244;28;20037;-76
2021/12/17 04:02:11;;;;;;;13.20;3.63;;;;;;;3.90;96.02;100016.69;10414674;28;20056;-69
2021/12/17 04:07:12;;;;;;;10.73;4.00;;;;;;;4.51;96.41;100128.81;10415759;28;20437;-72
2021/12/17 04:12:17;;;;;;;6.68;3.47;;;;;;;3.88;96.11;100027.31;10439768;28;20052;-73
2021/12/17 04:17:24;;;;;;;11.38;3.78;;;;;;;3.25;96.17;99933.88;10456595;28;20084;-75
2021/12/17 04:22:24;;;;;;;11.20;3.90;;;;;;;4.68;97.05;100149.22;10454219;28;20038;-73
2021/12/17 04:27:25;;;;;;;11.00;4.22;;;;;;;4.57;96.25;100130.91;10469087;28;20051;-76
2021/12/17 04:32:26;;;;;;;17.55;5.32;;;;;;;4.68;95.85;100138.69;10497419;28;20099;-70
2021/12/17 04:37:27;;;;;;;13.48;4.75;;;;;;;3.90;96.17;100011.44;10496636;28;20041;-68
2021/12/17 04:42:42;;;;;;;17.58;4.40;;;;;;;4.81;96.31;100151.59;10497075;28;20484;-72
2021/12/17 04:58:22;;;;;;;17.83;4.22;;;;;;;3.81;96.45;99986.78;10454587;28;20071;-71
2021/12/17 05:03:23;;;;;;;8.73;4.63;;;;;;;4.57;96.07;100107.22;10453090;28;20480;-71
2021/12/17 05:08:25;;;;;;;8.77;4.40;;;;;;;4.78;95.82;100150.06;10455297;28;20179;-71
2021/12/17 05:19:41;;;;;;;10.90;4.72;;;;;;;4.73;95.85;100144.41;10455312;28;20583;-71
2021/12/17 05:24:05;;;;;;;17.20;5.63;;;;;;;4.18;95.61;100046.66;10443387;28;20048;-71
2021/12/17 05:29:06;;;;;;;23.88;7.00;;;;;;;4.90;96.06;100158.69;10454229;28;20044;-71
2021/12/17 05:34:07;;;;;;;11.13;5.70;;;;;;;4.69;95.68;100118.47;10435899;28;20493;-71
2021/12/17 05:39:08;;;;;;;13.25;6.30;;;;;;;5.03;95.69;100169.81;10454689;28;20112;-73
2021/12/17 05:44:08;;;;;;;17.48;7.25;;;;;;;4.33;95.34;100049.72;10453403;28;20095;-71
2021/12/17 05:49:09;;;;;;;18.75;6.65;;;;;;;4.19;94.98;100026.44;10453355;28;20471;-71
2021/12/17 05:54:10;;;;;;;14.13;6.45;;;;;;;4.69;95.68;100114.03;10453398;28;20041;-71
2021/12/17 05:59:12;;;;;;;10.85;6.07;;;;;;;5.02;95.50;100154.94;10435811;28;20054;-73
2021/12/17 06:04:12;;;;;;;14.65;6.40;;;;;;;3.34;94.86;99878.78;10453114;28;20045;-71
2021/12/17 06:09:14;;;;;;;17.50;6.25;;;;;;;4.84;95.06;100122.38;10453471;28;20098;-71
2021/12/17 06:14:14;;;;;;;15.52;7.30;;;;;;;5.02;94.83;100136.53;10453630;28;20063;-71
2021/12/17 06:19:19;;;;;;;14.32;6.05;;;;;;;4.79;94.98;100087.75;10452574;28;20037;-71
2021/12/17 06:24:19;;;;;;;;;;;;;;;5.26;94.87;100144.03;10453202;28;20464;-71
2021/12/17 06:29:20;;;;;;;16.15;6.22;;;;;;;5.26;94.29;100153.72;10452696;28;19917;-71
2021/12/17 06:34:21;;;;;;;17.85;6.68;;;;;;;5.07;94.60;100111.59;10454000;28;20036;-71
2021/12/17 06:39:23;;;;;;;11.82;5.82;;;;;;;5.27;94.42;100134.34;10460174;28;20451;-71
2021/12/17 06:44:26;;;;;;;18.23;7.53;;;;;;;5.25;94.20;100142.38;10459843;28;20087;-71
2021/12/17 06:54:55;;;;;;;14.93;6.70;;;;;;;5.33;94.50;100130.31;10460154;28;20041;-71
2021/12/17 07:38:35;;;;;;;16.50;8.45;;;;;;;5.90;93.25;100129.38;10458252;28;20500;-71
2021/12/17 07:42:05;;;;;;;17.60;8.50;;;;;;;5.22;92.46;99989.06;10458129;28;20049;-70
2021/12/17 07:47:05;;;;;;;14.18;8.07;;;;;;;5.13;92.18;99959.16;10456485;28;20413;-70
2021/12/17 07:52:06;;;;;;;16.05;8.20;;;;;;;5.93;92.41;100096.66;10458119;28;20060;-70
2021/12/17 07:57:07;;;;;;;17.20;8.80;;;;;;;5.23;91.85;99964.38;10457499;28;20045;-72
2021/12/17 08:02:08;;;;;;;18.58;7.50;;;;;;;5.69;92.03;100028.59;10456806;28;20131;-70
2021/12/17 08:07:09;;;;;;;19.77;9.52;;;;;;;6.01;91.79;100080.09;10456612;28;20041;-70
2021/12/17 08:12:10;;;;;;;19.77;9.73;;;;;;;5.92;92.17;100042.22;10457030;28;20048;-70
2021/12/17 08:28:07;;;;;;;23.02;9.23;;;;;;;6.03;91.92;100039.44;10455982;28;20094;-71
2021/12/17 08:33:08;;;;;;;18.00;8.57;;;;;;;6.04;91.82;100021.81;10455245;28;20098;-71
2021/12/17 08:38:09;;;;;;;23.20;8.90;;;;;;;5.87;91.14;99999.66;10438631;28;20037;-70
2021/12/17 08:43:10;;;;;;;16.65;7.75;;;;;;;5.54;91.71;99961.53;10455645;28;20037;-70
2021/12/17 08:48:11;;;;;;;23.33;8.52;;;;;;;5.93;92.03;100014.94;10455144;28;20065;-70
2021/12/17 08:53:12;;;;;;;21.13;8.82;;;;;;;5.76;91.91;99982.22;10455531;28;20559;-70
2021/12/17 08:58:14;;;;;;;15.45;8.38;;;;;;;5.85;91.42;99981.34;10455156;28;20029;-70
2021/12/17 09:03:15;;;;;;;15.65;8.23;;;;;;;5.66;91.41;99945.38;10455146;28;20040;-70
2021/12/17 09:08:16;;;;;;;23.00;9.07;;;;;;;5.28;91.95;99898.97;10454934;28;20041;-70
2021/12/17 09:13:17;;;;;;;25.52;8.88;;;;;;;5.96;92.13;99990.91;10454991;28;20049;-70
2021/12/17 09:18:17;;;;;;;22.73;9.23;;;;;;;5.78;91.79;99958.38;10454135;28;20055;-70
2021/12/17 09:23:19;;;;;;;20.08;8.65;;;;;;;5.11;91.61;99841.78;10454680;28;20382;-70
2021/12/17 09:28:20;;;;;;;46.17;19.70;;;;;;;5.90;91.52;99971.22;10455015;28;20175;-70
2021/12/17 09:33:21;;;;;;;41.38;22.05;;;;;;;5.97;91.16;99974.09;10454979;28;20075;-70
2021/12/17 09:38:21;;;;;;;42.60;21.67;;;;;;;5.95;90.87;99962.88;10454693;28;20087;-70
2021/12/17 09:43:23;;;;;;;46.53;21.67;;;;;;;5.96;91.36;99961.09;10436658;28;20072;-70
2021/12/17 09:48:24;;;;;;;46.35;22.20;;;;;;;6.00;91.18;99965.06;10453648;28;20059;-70
2021/12/17 09:53:25;;;;;;;45.03;22.40;;;;;;;5.94;91.29;99940.94;10453845;28;20485;-70
2021/12/17 09:58:26;;;;;;;48.35;21.98;;;;;;;5.99;90.86;99931.78;10454344;28;20041;-71
2021/12/17 10:03:27;;;;;;;44.63;21.52;;;;;;;5.26;90.58;99799.03;10453380;28;20069;-70
2021/12/17 10:08:28;;;;;;;43.92;21.52;;;;;;;6.01;90.20;99924.53;10453605;28;20047;-70
2021/12/17 10:13:34;;;;;;;48.20;23.17;;;;;;;5.89;90.11;99906.28;10461248;28;20043;-70
2021/12/17 10:18:36;;;;;;;51.30;21.77;;;;;;;5.94;89.89;99919.88;10462265;28;20072;-70
2021/12/17 10:23:41;;;;;;;54.40;23.80;;;;;;;5.52;89.59;99827.31;10460966;28;20103;-71
2021/12/17 10:29:04;;;;;;;46.83;24.05;;;;;;;6.46;89.67;99921.00;10462098;28;20519;-71
2021/12/17 10:34:05;;;;;;;56.72;24.52;;;;;;;5.60;88.63;99784.41;10461040;28;20128;-71
2021/12/17 10:39:30;;;;;;;45.20;22.48;;;;;;;6.44;89.16;99926.47;10453432;28;20044;-71
2021/12/17 10:44:30;;;;;;;48.97;23.35;;;;;;;6.12;89.45;99882.13;10443010;28;20033;-72
2021/12/17 10:49:31;;;;;;;49.10;24.65;;;;;;;6.31;89.29;99913.66;10460717;28;20548;-71
2021/12/17 10:54:33;;;;;;;47.78;22.60;;;;;;;6.20;88.84;99882.22;10460267;28;20094;-72
2021/12/17 10:59:36;;;;;;;51.97;23.40;;;;;;;6.42;88.32;99912.56;10460078;28;20052;-72
2021/12/17 11:04:43;;;;;;;46.25;22.73;;;;;;;6.12;88.30;99861.03;10459639;28;20037;-71
2021/12/17 11:09:57;;;;;;;52.65;23.15;;;;;;;5.80;88.10;99788.53;10442238;28;20057;-71
2021/12/17 11:15:12;;;;;;;50.65;22.75;;;;;;;6.58;87.33;99920.66;10459674;28;20033;-71
2021/12/17 11:20:28;;;;;;;55.42;22.95;;;;;;;6.61;88.32;99919.50;10459237;28;20072;-71
2021/12/17 11:25:28;;;;;;;43.33;21.25;;;;;;;5.72;88.22;99765.59;10442209;28;20131;-71
2021/12/17 11:30:32;;;;;;;46.05;21.02;;;;;;;5.89;87.70;99792.06;10459317;28;20135;-70
2021/12/17 11:35:36;;;;;;;46.63;21.85;;;;;;;6.72;87.59;99908.69;10458424;28;20036;-70
2021/12/17 11:40:48;;;;;;;35.92;19.75;;;;;;;6.65;87.24;99894.47;10458527;28;20047;-71
2021/12/17 11:46:10;;;;;;;43.63;20.60;;;;;;;6.43;87.51;99866.72;10441026;28;20110;-71
2021/12/17 11:51:18;;;;;;;44.08;20.15;;;;;;;6.51;87.96;99921.41;10458389;28;20501;-71
2021/12/17 11:56:41;;;;;;;40.20;19.88;;;;;;;6.11;88.29;99833.03;10457699;28;20044;-71
2021/12/17 12:01:50;;;;;;;37.88;19.65;;;;;;;6.18;87.89;99861.25;10439900;28;20135;-71
2021/12/17 12:07:04;;;;;;;40.50;20.35;;;;;;;6.66;88.29;99917.22;10457364;28;20052;-71
2021/12/17 12:12:10;;;;;;;37.17;18.13;;;;;;;6.68;86.86;99910.00;10457246;28;20408;-71
2021/12/17 12:17:11;;;;;;;35.40;18.35;;;;;;;6.57;87.17;99891.75;10439419;28;20041;-72
2021/12/17 12:22:12;;;;;;;35.58;19.20;;;;;;;6.66;87.49;99924.31;10456256;28;20045;-71
2021/12/17 12:27:28;;;;;;;40.30;19.77;;;;;;;6.53;87.68;99895.69;10457109;28;20043;-71
2021/12/17 12:32:30;;;;;;;38.92;19.92;;;;;;;6.22;87.69;99863.59;10451116;28;20489;-71
2021/12/17 12:37:31;;;;;;;39.70;20.00;;;;;;;6.44;87.72;99896.59;10442513;28;20077;-71
2021/12/17 12:42:35;;;;;;;43.78;21.70;;;;;;;6.57;87.19;99918.16;10445965;28;20136;-72
2021/12/17 12:47:43;;;;;;;43.92;20.05;;;;;;;5.55;87.93;99761.13;10451097;28;20064;-72
2021/12/17 12:52:50;;;;;;;44.33;19.00;;;;;;;5.87;87.81;99823.88;10414776;28;20038;-72
2021/12/17 12:57:55;;;;;;;37.25;19.90;;;;;;;6.46;87.74;99921.88;10412415;28;20072;-71
2021/12/17 13:03:01;;;;;;;77.80;39.72;;;;;;;6.39;87.74;99926.06;10413439;28;20115;-72
2021/12/17 13:08:05;;;;;;;64.97;32.25;;;;;;;6.35;88.13;99936.09;10413958;28;20095;-71
2021/12/17 13:23:47;;;;;;;38.80;21.15;;;;;;;6.27;88.33;99922.00;10403842;28;20571;-72
2021/12/17 13:28:55;;;;;;;45.95;24.20;;;;;;;6.23;88.24;99923.31;10404461;28;20049;-72
2021/12/17 13:33:55;;;;;;;46.78;21.52;;;;;;;6.25;88.36;99932.72;10384783;28;20567;-72
2021/12/17 13:38:57;;;;;;;45.85;21.50;;;;;;;6.26;88.48;99926.47;10442974;28;20041;-71
2021/12/17 13:43:59;;;;;;;51.28;23.85;;;;;;;6.03;88.45;99891.78;10432893;28;20049;-72
2021/12/17 13:49:00;;;;;;;47.47;24.58;;;;;;;5.99;88.65;99898.34;10468956;28;20052;-70
2021/12/17 13:54:01;;;;;;;39.45;18.88;;;;;;;6.12;89.01;99922.53;10491558;28;20075;-73
2021/12/17 13:59:03;;;;;;;39.00;20.02;;;;;;;6.13;89.06;99924.19;10467200;28;20444;-71
2021/12/17 14:04:12;;;;;;;34.60;17.52;;;;;;;6.02;89.06;99889.31;10474072;28;20048;-73
2021/12/17 14:09:16;;;;;;;38.90;17.45;;;;;;;6.22;89.15;99924.25;10485240;28;20045;-70
2021/12/17 14:14:21;;;;;;;34.35;18.48;;;;;;;6.20;88.81;99927.06;10481431;28;20041;-72
2021/12/17 14:19:45;;;;;;;40.53;19.45;;;;;;;6.20;88.85;99927.06;10487276;28;20515;-70
2021/12/17 14:24:46;;;;;;;;;;;;;;;6.27;89.09;99912.28;10500617;28;20496;-69
2021/12/17 14:30:00;;;;;;;38.60;19.08;;;;;;;5.61;88.75;99836.94;10486460;28;19921;-72
2021/12/17 14:35:01;;;;;;;34.03;18.50;;;;;;;6.03;89.41;99902.31;10502184;28;20044;-74
2021/12/17 14:40:02;;;;;;;35.40;19.00;;;;;;;6.01;89.55;99906.09;10498225;28;20119;-69
2021/12/17 14:45:07;;;;;;;38.20;18.73;;;;;;;5.85;89.32;99870.63;10493271;28;20496;-70
2021/12/17 15:05:49;;;;;;;36.17;20.63;;;;;;;6.05;89.19;99908.28;10453130;28;20075;-71
2021/12/17 15:10:50;;;;;;;42.50;20.88;;;;;;;6.11;90.07;99914.78;10453875;28;20048;-73
2021/12/17 15:15:52;;;;;;;52.78;25.70;;;;;;;6.13;90.22;99911.00;10448688;28;20048;-69
2021/12/17 15:20:56;;;;;;;48.42;28.17;;;;;;;6.02;89.34;99903.31;10453957;28;20483;-73
2021/12/17 15:25:56;;;;;;;44.77;23.63;;;;;;;5.84;89.57;99849.72;10453340;28;20076;-73
2021/12/17 15:31:02;;;;;;;46.13;22.15;;;;;;;6.13;90.22;99902.25;10430877;28;20123;-73
2021/12/17 15:36:04;;;;;;;41.55;20.83;;;;;;;5.98;89.82;99866.84;10418424;28;20080;-73
2021/12/17 15:41:04;;;;;;;42.15;20.20;;;;;;;5.47;89.96;99785.63;10416738;28;20128;-73
2021/12/17 15:46:05;;;;;;;40.55;21.35;;;;;;;5.89;90.20;99885.19;10417555;28;20131;-73
2021/12/17 15:51:09;;;;;;;52.28;20.88;;;;;;;4.78;89.70;99749.25;10473335;28;20064;-72
2021/12/17 15:56:10;;;;;;;44.47;21.92;;;;;;;5.22;90.42;99847.69;10491140;28;20033;-72
2021/12/17 16:01:10;;;;;;;46.00;22.27;;;;;;;5.27;91.34;99865.72;10495587;28;20048;-73
2021/12/17 16:06:11;;;;;;;45.78;21.13;;;;;;;4.86;90.64;99822.22;10493086;28;20032;-73
2021/12/17 16:21:45;;;;;;;39.45;19.48;;;;;;;5.01;92.11;99845.28;10493955;28;20075;-73
2021/12/17 16:26:46;;;;;;;42.78;20.73;;;;;;;5.48;92.16;99899.72;10473253;28;20036;-73
2021/12/17 16:31:48;;;;;;;39.00;19.70;;;;;;;5.41;92.54;99870.47;10495394;28;20033;-72
2021/12/17 16:36:50;;;;;;;43.47;19.85;;;;;;;4.93;91.64;99779.38;10493576;28;20040;-72
2021/12/17 16:41:52;;;;;;;39.05;19.20;;;;;;;4.99;91.11;99778.78;10490104;28;20083;-72
2021/12/17 16:51:53;;;;;;;45.22;21.15;;;;;;;5.75;91.75;99896.25;10455874;28;20079;-74
2021/12/17 16:56:54;;;;;;;43.55;20.67;;;;;;;5.60;92.23;99868.72;10443668;28;20044;-72
2021/12/17 17:01:55;;;;;;;42.50;20.15;;;;;;;5.62;91.28;99877.31;10447891;28;20127;-72
2021/12/17 17:06:56;;;;;;;42.13;20.23;;;;;;;4.86;91.94;99751.16;10428550;28;20087;-73
2021/12/17 17:12:02;;;;;;;42.50;20.40;;;;;;;5.55;92.71;99858.63;10448308;28;20119;-73
2021/12/17 17:17:08;;;;;;;42.83;19.27;;;;;;;5.67;92.08;99882.97;10448554;28;20043;-73
2021/12/17 17:22:09;;;;;;;43.33;18.42;;;;;;;5.20;92.35;99806.69;10444668;28;20032;-72
2021/12/17 17:27:09;;;;;;;38.03;19.80;;;;;;;5.36;92.82;99856.94;10446592;28;20056;-72
2021/12/17 17:32:10;;;;;;;40.28;19.35;;;;;;;5.61;93.00;99881.75;10447710;28;20040;-72
2021/12/17 17:37:11;;;;;;;35.75;19.27;;;;;;;4.21;92.66;99631.00;10429444;28;20041;-72
2021/12/17 17:42:13;;;;;;;38.83;19.90;;;;;;;4.99;93.21;99765.63;10428335;28;20079;-73
2021/12/17 17:47:14;;;;;;;42.42;19.05;;;;;;;5.08;92.82;99786.78;10447649;28;20163;-73
2021/12/17 17:52:15;;;;;;;36.33;19.20;;;;;;;5.56;93.01;99862.91;10435043;28;20059;-73
2021/12/17 17:57:16;;;;;;;46.47;20.73;;;;;;;5.10;93.17;99787.47;10445005;28;20417;-72
2021/12/17 18:02:17;;;;;;;38.67;19.40;;;;;;;5.49;93.86;99843.41;10446348;28;20037;-72
2021/12/17 18:07:18;;;;;;;43.63;20.45;;;;;;;4.95;93.37;99756.38;10447313;28;20493;-72
2021/12/17 18:12:19;;;;;;;39.88;20.33;;;;;;;5.58;93.82;99874.13;10448761;28;20082;-72
2021/12/17 18:17:20;;;;;;;38.78;21.13;;;;;;;5.65;94.37;99887.53;10450027;28;20037;-72
2021/12/17 18:22:21;;;;;;;37.65;19.90;;;;;;;4.75;93.11;99736.38;10450206;28;20033;-75
2021/12/17 18:27:24;;;;;;;40.60;19.38;;;;;;;5.73;93.57;99892.91;10448428;28;20060;-72
2021/12/17 18:32:24;;;;;;;34.70;19.48;;;;;;;5.36;93.07;99854.28;10456438;28;20049;-72
2021/12/17 18:37:25;;;;;;;40.40;19.65;;;;;;;5.53;93.51;99872.91;10458204;28;20593;-72
2021/12/17 18:47:45;;;;;;;35.92;19.77;;;;;;;5.74;94.35;99865.56;10442824;28;20056;-70
2021/12/17 18:52:47;;;;;;;36.50;19.48;;;;;;;5.75;93.58;99866.44;10500481;28;20496;-70
2021/12/17 18:57:48;;;;;;;36.00;19.58;;;;;;;5.30;93.72;99796.94;10501461;28;20076;-70
2021/12/17 19:02:49;;;;;;;40.38;21.77;;;;;;;4.78;93.37;99686.09;10500889;28;20071;-70
2021/12/17 19:07:50;;;;;;;34.45;19.27;;;;;;;6.06;93.26;99898.56;10499385;28;20040;-71
2021/12/17 19:12:51;;;;;;;38.30;19.70;;;;;;;4.99;92.63;99736.66;10500020;28;20068;-70
2021/12/17 19:17:53;;;;;;;38.67;20.30;;;;;;;5.55;92.72;99829.63;10491822;28;20045;-71
2021/12/17 19:22:54;;;;;;;41.33;20.50;;;;;;;5.96;92.34;99884.63;10500462;28;20110;-71
2021/12/17 19:27:55;;;;;;;38.63;19.10;;;;;;;5.90;92.60;99886.03;10480635;28;20029;-73
2021/12/17 19:32:56;;;;;;;34.53;19.85;;;;;;;5.18;93.13;99762.09;10491675;28;20045;-72
2021/12/17 19:37:57;;;;;;;41.97;20.20;;;;;;;5.99;93.51;99889.59;10472518;28;20045;-71
2021/12/17 19:42:58;;;;;;;34.30;20.02;;;;;;;5.84;92.66;99869.00;10439353;28;20500;-71
2021/12/17 19:48:13;;;;;;;42.75;20.58;;;;;;;5.61;93.14;99839.59;10472492;28;20416;-71
2021/12/17 19:53:14;;;;;;;38.20;21.00;;;;;;;6.01;92.48;99896.34;10498917;28;20040;-72
2021/12/17 19:58:15;;;;;;;42.42;21.13;;;;;;;5.13;93.27;99747.69;10498112;28;20504;-71
2021/12/17 20:03:17;;;;;;;37.05;20.15;;;;;;;5.92;92.74;99873.50;10498664;28;20055;-73
2021/12/17 20:08:22;;;;;;;43.22;20.98;;;;;;;6.00;92.91;99891.25;10496795;28;20070;-71
2021/12/17 20:13:23;;;;;;;38.90;20.92;;;;;;;5.84;92.90;99853.19;10496913;28;20040;-71
2021/12/17 20:18:24;;;;;;;40.42;19.77;;;;;;;6.10;92.95;99898.13;10496968;28;20059;-71
2021/12/17 20:23:26;;;;;;;37.78;20.42;;;;;;;5.51;92.08;99793.22;10497388;28;20127;-74
2021/12/17 20:28:30;;;;;;;37.80;20.42;;;;;;;6.21;92.53;99907.59;10497372;28;20445;-71
2021/12/17 20:33:31;;;;;;;40.50;21.20;;;;;;;6.06;92.33;99898.56;10491861;28;20036;-71
2021/12/17 20:38:32;;;;;;;49.33;21.40;;;;;;;5.53;92.42;99833.41;10490971;28;20519;-71
2021/12/17 20:43:42;;;;;;;39.88;21.02;;;;;;;5.99;93.47;99924.72;10497265;28;20107;-72
2021/12/17 20:48:47;;;;;;;44.55;21.52;;;;;;;5.96;92.94;99893.38;10496945;28;20428;-72
2021/12/17 20:53:47;;;;;;;39.47;20.90;;;;;;;6.10;92.76;99936.81;10496960;28;20052;-71
2021/12/17 20:58:48;;;;;;;35.00;20.05;;;;;;;5.58;92.99;99846.97;10496201;28;20515;-71
2021/12/17 21:03:49;;;;;;;40.28;19.92;;;;;;;5.98;93.19;99909.03;10495952;28;20041;-71
2021/12/17 21:08:55;;;;;;;44.28;20.70;;;;;;;6.00;93.70;99896.53;10496583;28;20040;-72
2021/12/17 21:14:10;;;;;;;39.60;20.65;;;;;;;6.15;93.64;99916.94;10496383;28;20078;-73
2021/12/17 21:19:12;;;;;;;33.13;19.08;;;;;;;5.75;93.20;99856.72;10496036;28;20036;-72
2021/12/17 21:24:13;;;;;;;38.58;21.05;;;;;;;5.98;93.39;99885.28;10496370;28;20044;-71
2021/12/17 21:29:15;;;;;;;37.58;19.60;;;;;;;6.07;93.35;99905.47;10495524;28;20128;-71
2021/12/17 21:34:18;;;;;;;37.15;20.58;;;;;;;5.24;93.42;99752.75;10495777;28;20044;-71
2021/12/17 21:39:19;;;;;;;34.92;20.45;;;;;;;5.92;92.98;99871.72;10495481;28;20041;-72
2021/12/17 21:44:20;;;;;;;41.47;20.52;;;;;;;4.93;93.70;99715.38;10495378;28;20117;-71
2021/12/17 21:49:21;;;;;;;37.25;19.98;;;;;;;5.85;93.65;99852.19;10495180;28;20147;-71
2021/12/17 21:54:23;;;;;;;39.33;21.05;;;;;;;4.56;94.15;99635.53;10494950;28;20504;-71
2021/12/17 21:59:23;;;;;;;44.47;21.85;;;;;;;5.65;93.60;99819.03;10495453;28;20097;-71
2021/12/17 22:04:26;;;;;;;49.70;24.15;;;;;;;5.39;94.39;99767.09;10495073;28;20037;-71
2021/12/17 22:09:30;;;;;;;40.55;23.25;;;;;;;6.03;94.14;99878.59;10503256;28;20037;-71
2021/12/17 22:14:31;;;;;;;46.20;22.65;;;;;;;6.01;93.83;99880.53;10503858;28;20036;-71
2021/12/17 22:19:38;;;;;;;35.20;20.83;;;;;;;5.41;93.58;99815.16;10503078;28;20057;-71
2021/12/17 22:24:39;;;;;;;37.30;19.90;;;;;;;5.68;93.97;99856.47;10502904;28;20507;-71
2021/12/17 22:29:40;;;;;;;40.47;21.75;;;;;;;5.18;94.77;99756.81;10502220;28;20040;-71
2021/12/17 22:34:41;;;;;;;34.55;19.85;;;;;;;5.98;94.58;99882.66;10501797;28;20114;-71
2021/12/17 22:39:43;;;;;;;34.17;20.52;;;;;;;5.54;94.06;99806.09;10502283;28;20127;-71
2021/12/17 22:44:44;;;;;;;43.97;22.17;;;;;;;6.03;94.66;99888.31;10501624;28;20534;-71
2021/12/17 22:49:45;;;;;;;34.67;19.08;;;;;;;5.78;94.40;99859.03;10500645;28;20080;-72
2021/12/17 22:54:46;;;;;;;38.00;20.20;;;;;;;5.46;94.17;99804.19;10501584;28;20040;-71
2021/12/17 22:59:46;;;;;;;39.35;19.70;;;;;;;5.14;94.63;99739.63;10501485;28;20051;-71
2021/12/17 23:04:56;;;;;;;37.60;19.77;;;;;;;5.59;94.21;99806.44;10501758;28;20488;-71
2021/12/17 23:09:58;;;;;;;34.67;20.42;;;;;;;5.72;94.13;99828.00;10500473;28;20120;-71
2021/12/17 23:14:59;;;;;;;39.40;20.60;;;;;;;5.83;94.53;99824.31;10500583;28;20068;-74
2021/12/17 23:19:59;;;;;;;36.55;21.52;;;;;;;6.08;94.82;99863.16;10500666;28;20071;-71
2021/12/17 23:25:01;;;;;;;42.50;23.48;;;;;;;6.17;93.79;99885.16;10500635;28;20110;-71
2021/12/17 23:30:04;;;;;;;44.78;22.40;;;;;;;4.34;93.86;99593.88;10498764;28;20127;-71
2021/12/17 23:35:16;;;;;;;43.78;23.13;;;;;;;5.80;94.68;99821.97;10500782;28;20531;-71
2021/12/17 23:40:17;;;;;;;46.33;23.65;;;;;;;6.02;94.57;99868.22;10498355;28;20070;-71
2021/12/17 23:45:18;;;;;;;33.83;19.58;;;;;;;5.97;94.80;99862.56;10500484;28;20036;-71
2021/12/17 23:50:19;;;;;;;35.22;20.00;;;;;;;4.48;94.49;99611.75;10499184;28;20505;-71
2021/12/17 23:55:20;;;;;;;37.97;19.95;;;;;;;4.62;94.59;99620.16;10499469;28;20480;-71
